createdAt,value
2022-10-13T00:01:01.125Z,3.88
2022-10-13T00:03:28.109Z,4.50
2022-10-13T00:05:55.068Z,3.60
2022-10-13T00:08:22.598Z,4.13
2022-10-13T00:10:51.088Z,4.38
2022-10-13T00:13:23.826Z,3.50
2022-10-13T00:15:50.948Z,3.95
2022-10-13T00:18:18.082Z,3.92
2022-10-13T00:20:48.579Z,4.35
2022-10-13T00:23:17.505Z,4.25
2022-10-13T00:25:49.542Z,3.70
2022-10-13T00:28:18.958Z,4.00
2022-10-13T00:30:47.206Z,3.67
2022-10-13T00:33:17.021Z,3.63
2022-10-13T00:35:46.540Z,4.85
2022-10-13T00:38:16.656Z,3.72
2022-10-13T00:40:55.057Z,3.75
2022-10-13T00:43:25.525Z,3.55
2022-10-13T00:45:53.660Z,3.90
2022-10-13T00:48:25.501Z,5.15
2022-10-13T00:53:24.451Z,4.47
2022-10-13T00:55:52.808Z,3.95
2022-10-13T00:58:23.749Z,3.95
2022-10-13T01:00:52.473Z,3.47
2022-10-13T01:03:21.141Z,3.58
2022-10-13T01:05:50.436Z,3.72
2022-10-13T01:08:19.128Z,4.18
2022-10-13T01:11:12.570Z,4.28
2022-10-13T01:14:02.999Z,5.15
2022-10-13T01:16:34.738Z,3.90
2022-10-13T01:19:16.758Z,3.10
2022-10-13T01:24:30.609Z,3.10
2022-10-13T01:27:25.187Z,3.90
2022-10-13T01:30:05.891Z,3.40
2022-10-13T01:32:49.088Z,4.00
2022-10-13T01:35:41.404Z,3.70
2022-10-13T01:38:23.217Z,3.50
2022-10-13T01:41:31.863Z,3.35
2022-10-13T01:44:16.598Z,3.55
2022-10-13T01:46:53.911Z,4.18
2022-10-13T01:49:26.140Z,3.10
2022-10-13T01:51:55.775Z,3.33
2022-10-13T01:54:22.703Z,4.00
2022-10-13T01:56:57.046Z,3.70
2022-10-13T01:59:28.470Z,3.63
2022-10-13T02:02:13.112Z,3.72
2022-10-13T02:04:54.312Z,3.63
2022-10-13T02:07:39.309Z,3.40
2022-10-13T02:10:17.614Z,3.67
2022-10-13T02:12:59.209Z,3.60
2022-10-13T02:15:35.926Z,3.35
2022-10-13T02:18:08.091Z,3.78
2022-10-13T02:20:36.439Z,3.28
2022-10-13T02:23:09.153Z,3.88
2022-10-13T02:25:36.867Z,3.55
2022-10-13T02:28:05.453Z,4.32
2022-10-13T02:30:35.895Z,4.72
2022-10-13T02:33:03.746Z,3.13
2022-10-13T02:35:32.820Z,4.07
2022-10-13T02:38:01.139Z,2.58
2022-10-13T02:40:28.521Z,3.50
2022-10-13T02:42:55.400Z,3.40
2022-10-13T02:45:22.639Z,3.15
2022-10-13T02:47:50.029Z,3.42
2022-10-13T02:50:17.042Z,3.53
2022-10-13T02:52:44.021Z,4.47
2022-10-13T02:55:11.778Z,3.03
2022-10-13T02:57:39.122Z,3.10
2022-10-13T03:00:07.696Z,3.90
2022-10-13T03:02:35.045Z,2.85
2022-10-13T03:05:01.944Z,3.20
2022-10-13T03:07:29.023Z,3.63
2022-10-13T03:09:56.432Z,3.53
2022-10-13T03:12:23.466Z,3.38
2022-10-13T03:14:50.395Z,3.47
2022-10-13T03:17:20.752Z,3.83
2022-10-13T03:19:48.291Z,4.88
2022-10-13T03:22:18.905Z,3.53
2022-10-13T03:24:46.176Z,4.13
2022-10-13T03:27:13.107Z,3.33
2022-10-13T03:29:40.870Z,4.15
2022-10-13T03:32:07.797Z,3.55
2022-10-13T03:34:34.915Z,4.97
2022-10-13T03:37:07.710Z,4.30
2022-10-13T03:39:42.325Z,3.72
2022-10-13T03:42:10.793Z,3.40
2022-10-13T03:44:39.276Z,3.00
2022-10-13T03:47:06.407Z,3.80
2022-10-13T03:49:33.339Z,3.45
2022-10-13T03:52:00.420Z,3.92
2022-10-13T03:54:27.494Z,3.65
2022-10-13T03:56:54.351Z,4.35
2022-10-13T03:59:21.219Z,3.63
2022-10-13T04:01:48.228Z,3.97
2022-10-13T04:04:15.584Z,4.28
2022-10-13T04:06:46.112Z,3.85
2022-10-13T04:09:15.736Z,3.92
2022-10-13T04:11:42.973Z,3.95
2022-10-13T04:14:10.227Z,3.60
2022-10-13T04:16:39.668Z,4.15
2022-10-13T04:19:06.877Z,4.38
2022-10-13T04:21:35.267Z,3.50
2022-10-13T04:24:02.857Z,4.00
2022-10-13T04:26:33.152Z,3.83
2022-10-13T04:29:08.764Z,5.18
2022-10-13T04:31:38.490Z,3.58
2022-10-13T04:34:05.630Z,3.15
2022-10-13T04:36:32.689Z,3.15
2022-10-13T04:38:59.631Z,3.15
2022-10-13T04:41:26.577Z,3.60
2022-10-13T04:43:54.252Z,5.20
2022-10-13T04:46:25.654Z,5.30
2022-10-13T04:48:55.656Z,3.28
2022-10-13T04:51:29.072Z,3.08
2022-10-13T04:53:58.057Z,3.03
2022-10-13T04:56:25.625Z,3.13
2022-10-13T04:58:52.972Z,2.80
2022-10-13T05:01:22.619Z,3.40
2022-10-13T05:03:54.594Z,3.25
2022-10-13T05:06:25.399Z,3.30
2022-10-13T05:08:56.119Z,4.47
2022-10-13T05:11:24.337Z,3.08
2022-10-13T05:13:51.317Z,4.20
2022-10-13T05:16:21.053Z,3.63
2022-10-13T05:18:52.507Z,3.95
2022-10-13T05:21:22.386Z,3.55
2022-10-13T05:23:49.342Z,5.45
2022-10-13T05:26:18.242Z,3.33
2022-10-13T05:28:46.909Z,3.67
2022-10-13T05:31:19.516Z,4.80
2022-10-13T05:33:47.331Z,4.22
2022-10-13T05:36:34.395Z,3.78
2022-10-13T05:39:09.926Z,3.65
2022-10-13T05:41:37.086Z,3.45
2022-10-13T05:44:09.295Z,3.65
2022-10-13T05:46:42.287Z,3.42
2022-10-13T05:49:09.504Z,4.75
2022-10-13T05:51:50.720Z,3.65
2022-10-13T05:54:47.228Z,3.53
2022-10-13T05:57:18.914Z,3.58
2022-10-13T05:59:52.554Z,3.42
2022-10-13T06:02:24.851Z,3.63
2022-10-13T06:04:55.649Z,3.70
2022-10-13T06:07:22.553Z,4.05
2022-10-13T06:09:49.883Z,3.90
2022-10-13T06:12:17.063Z,3.78
2022-10-13T06:14:44.168Z,4.15
2022-10-13T06:17:11.821Z,3.67
2022-10-13T06:19:43.164Z,3.95
2022-10-13T06:22:10.088Z,3.40
2022-10-13T06:24:37.087Z,4.28
2022-10-13T06:27:08.250Z,3.80
2022-10-13T06:29:39.498Z,4.18
2022-10-13T06:32:06.653Z,4.35
2022-10-13T06:34:33.662Z,3.72
2022-10-13T06:37:00.626Z,4.10
2022-10-13T06:39:27.692Z,6.00
2022-10-13T06:41:55.389Z,5.03
2022-10-13T06:44:31.724Z,3.92
2022-10-13T06:47:03.412Z,4.10
2022-10-13T06:49:30.317Z,3.95
2022-10-13T06:51:57.468Z,3.92
2022-10-13T06:54:24.475Z,3.33
2022-10-13T06:56:51.933Z,3.95
2022-10-13T06:59:19.167Z,4.07
2022-10-13T07:01:46.997Z,5.93
2022-10-13T07:04:16.010Z,4.60
2022-10-13T07:06:42.997Z,4.43
2022-10-13T07:09:10.406Z,4.20
2022-10-13T07:11:37.377Z,3.35
2022-10-13T07:14:04.635Z,4.15
2022-10-13T07:16:32.009Z,3.97
2022-10-13T07:18:58.990Z,4.00
2022-10-13T07:21:26.410Z,3.88
2022-10-13T07:23:53.552Z,5.38
2022-10-13T07:26:20.779Z,3.72
2022-10-13T07:28:47.852Z,5.05
2022-10-13T07:31:17.936Z,4.60
2022-10-13T07:33:47.260Z,4.65
2022-10-13T07:36:16.934Z,4.53
2022-10-13T07:38:44.039Z,4.38
2022-10-13T07:41:12.466Z,3.97
2022-10-13T07:43:40.162Z,4.90
2022-10-13T07:46:07.917Z,4.20
2022-10-13T07:48:35.671Z,5.03
2022-10-13T07:51:07.662Z,4.78
2022-10-13T07:53:35.571Z,4.43
2022-10-13T07:56:04.671Z,4.45
2022-10-13T07:58:32.225Z,5.25
2022-10-13T08:01:01.124Z,4.88
2022-10-13T08:03:28.994Z,3.80
2022-10-13T08:05:59.318Z,6.05
2022-10-13T08:08:26.779Z,4.70
2022-10-13T08:10:55.010Z,4.13
2022-10-13T08:13:23.731Z,4.75
2022-10-13T08:15:51.256Z,4.53
2022-10-13T08:18:18.331Z,5.10
2022-10-13T08:20:48.528Z,4.90
2022-10-13T08:23:18.059Z,5.10
2022-10-13T08:25:50.957Z,5.93
2022-10-13T08:28:21.168Z,5.20
2022-10-13T08:30:48.994Z,5.50
2022-10-13T08:33:16.490Z,5.13
2022-10-13T08:35:43.565Z,4.80
2022-10-13T08:38:11.161Z,5.05
2022-10-13T08:40:39.658Z,5.38
2022-10-13T08:43:15.009Z,5.07
2022-10-13T08:45:42.600Z,4.90
2022-10-13T08:48:13.326Z,4.95
2022-10-13T08:50:44.916Z,4.60
2022-10-13T08:53:28.341Z,4.50
2022-10-13T08:56:19.720Z,4.45
2022-10-13T08:58:48.928Z,4.73
2022-10-13T09:01:25.759Z,4.35
2022-10-13T09:04:30.104Z,4.65
2022-10-13T09:07:05.250Z,4.57
2022-10-13T09:09:32.739Z,4.55
2022-10-13T09:12:00.046Z,5.32
2022-10-13T09:14:31.404Z,4.82
2022-10-13T09:17:17.954Z,4.40
2022-10-13T09:19:46.335Z,4.78
2022-10-13T09:22:36.165Z,4.30
2022-10-13T09:25:22.506Z,4.03
2022-10-13T09:28:16.119Z,3.80
2022-10-13T09:30:47.127Z,5.13
2022-10-13T09:33:20.366Z,5.37
2022-10-13T09:35:58.945Z,4.78
2022-10-13T09:38:26.937Z,4.68
2022-10-13T09:41:15.283Z,5.32
2022-10-13T09:43:48.144Z,4.38
2022-10-13T09:46:29.516Z,4.05
2022-10-13T09:49:04.137Z,5.03
2022-10-13T09:51:38.965Z,5.45
2022-10-13T09:54:36.559Z,5.10
2022-10-13T09:57:11.994Z,3.78
2022-10-13T09:59:48.250Z,4.63
2022-10-13T10:02:32.419Z,4.10
2022-10-13T10:05:15.826Z,4.43
2022-10-13T10:07:43.197Z,4.35
2022-10-13T10:10:25.545Z,4.43
2022-10-13T10:12:52.587Z,4.05
2022-10-13T10:15:28.542Z,4.57
2022-10-13T10:18:16.275Z,4.10
2022-10-13T10:21:08.067Z,4.32
2022-10-13T10:23:59.781Z,4.80
2022-10-13T10:26:41.928Z,4.93
2022-10-13T10:29:22.306Z,4.20
2022-10-13T10:32:25.411Z,3.50
2022-10-13T10:35:07.356Z,4.32
2022-10-13T10:37:51.614Z,4.65
2022-10-13T10:43:03.756Z,4.07
2022-10-13T10:45:37.810Z,5.18
2022-10-13T10:48:13.264Z,5.15
2022-10-13T10:50:40.883Z,4.15
2022-10-13T10:53:51.895Z,3.95
2022-10-13T10:56:39.651Z,4.38
2022-10-13T10:59:22.900Z,3.35
2022-10-13T11:02:04.965Z,4.03
2022-10-13T11:07:31.849Z,4.38
2022-10-13T11:10:17.163Z,4.32
2022-10-13T11:12:53.511Z,4.45
2022-10-13T11:15:23.660Z,5.03
2022-10-13T11:17:50.899Z,4.30
2022-10-13T11:20:20.610Z,4.80
2022-10-13T11:22:59.853Z,4.65
2022-10-13T11:25:40.102Z,5.53
2022-10-13T11:28:22.726Z,3.75
2022-10-13T11:30:55.369Z,4.60
2022-10-13T11:33:36.071Z,4.00
2022-10-13T11:36:41.667Z,4.32
2022-10-13T11:39:50.836Z,4.03
2022-10-13T11:42:36.393Z,4.90
2022-10-13T11:45:26.816Z,4.03
2022-10-13T11:48:03.411Z,4.03
2022-10-13T11:51:10.312Z,3.95
2022-10-13T11:54:07.948Z,3.72
2022-10-13T11:56:59.557Z,3.78
2022-10-13T11:59:31.357Z,3.83
2022-10-13T12:02:06.793Z,6.03
2022-10-13T12:04:33.741Z,4.28
2022-10-13T12:07:04.370Z,4.05
2022-10-13T12:09:32.569Z,4.15
2022-10-13T12:12:19.894Z,4.43
2022-10-13T12:14:51.759Z,3.25
2022-10-13T12:17:31.732Z,3.35
2022-10-13T12:20:01.146Z,4.05
2022-10-13T12:22:29.240Z,4.20
2022-10-13T12:25:05.291Z,3.75
2022-10-13T12:27:42.282Z,3.85
2022-10-13T12:30:25.180Z,3.28
2022-10-13T12:32:54.504Z,4.40
2022-10-13T12:35:25.787Z,3.70
2022-10-13T12:37:56.865Z,3.85
2022-10-13T12:40:28.120Z,3.72
2022-10-13T12:42:55.923Z,3.75
2022-10-13T12:45:28.152Z,3.70
2022-10-13T12:47:55.767Z,4.00
2022-10-13T12:50:25.390Z,3.45
2022-10-13T12:53:04.293Z,3.90
2022-10-13T12:55:31.993Z,3.45
2022-10-13T12:57:59.228Z,3.92
2022-10-13T13:00:29.184Z,3.75
2022-10-13T13:03:17.552Z,4.45
2022-10-13T13:05:50.857Z,4.28
2022-10-13T13:08:29.451Z,4.97
2022-10-13T13:10:58.681Z,3.75
2022-10-13T13:13:54.625Z,3.85
2022-10-13T13:16:23.459Z,4.68
2022-10-13T13:18:51.697Z,4.00
2022-10-13T13:21:20.254Z,3.92
2022-10-13T13:23:52.884Z,3.97
2022-10-13T13:26:24.332Z,3.95
2022-10-13T13:28:54.889Z,4.75
2022-10-13T13:31:27.026Z,4.43
2022-10-13T13:33:54.088Z,4.15
2022-10-13T13:36:24.239Z,5.78
2022-10-13T13:38:54.731Z,4.75
2022-10-13T13:41:22.330Z,4.68
2022-10-13T13:43:50.484Z,4.95
2022-10-13T13:46:22.041Z,4.57
2022-10-13T13:48:49.392Z,4.32
2022-10-13T13:51:17.809Z,4.43
2022-10-13T13:53:46.024Z,5.28
2022-10-13T13:56:18.023Z,5.25
2022-10-13T13:58:46.014Z,4.13
2022-10-13T14:01:15.926Z,4.30
2022-10-13T14:03:43.473Z,4.68
2022-10-13T14:06:20.063Z,4.60
2022-10-13T14:08:53.929Z,4.82
2022-10-13T14:11:21.095Z,4.15
2022-10-13T14:13:48.203Z,4.88
2022-10-13T14:16:24.557Z,4.88
2022-10-13T14:18:52.792Z,3.83
2022-10-13T14:21:24.625Z,4.72
2022-10-13T14:23:56.704Z,4.28
2022-10-13T14:26:25.070Z,4.75
2022-10-13T14:28:52.527Z,5.28
2022-10-13T14:31:19.750Z,4.78
2022-10-13T14:33:50.786Z,6.07
2022-10-13T14:36:20.685Z,4.75
2022-10-13T14:38:48.027Z,5.32
2022-10-13T14:41:17.641Z,6.63
2022-10-13T14:43:46.117Z,7.07
2022-10-13T14:46:13.946Z,5.50
2022-10-13T14:48:43.651Z,5.70
2022-10-13T14:51:12.105Z,6.35
2022-10-13T14:53:41.431Z,6.97
2022-10-13T14:56:25.561Z,7.57
2022-10-13T14:58:58.843Z,6.03
2022-10-13T15:01:33.516Z,6.20
2022-10-13T15:04:01.892Z,6.03
2022-10-13T15:06:31.798Z,6.63
2022-10-13T15:08:59.238Z,6.72
2022-10-13T15:11:27.099Z,7.43
2022-10-13T15:13:54.070Z,6.65
2022-10-13T15:16:23.942Z,7.63
2022-10-13T15:18:51.813Z,7.03
2022-10-13T15:21:19.086Z,7.15
2022-10-13T15:23:47.173Z,7.03
2022-10-13T15:26:20.547Z,6.38
2022-10-13T15:28:56.334Z,6.25
2022-10-13T15:31:24.614Z,6.40
2022-10-13T15:33:53.692Z,5.97
2022-10-13T15:36:22.964Z,6.32
2022-10-13T15:38:51.245Z,7.68
2022-10-13T15:41:18.864Z,5.88
2022-10-13T15:43:45.952Z,5.70
2022-10-13T15:46:21.252Z,6.60
2022-10-13T15:48:49.788Z,5.80
2022-10-13T15:51:19.722Z,6.45
2022-10-13T15:53:48.494Z,6.03
2022-10-13T15:56:17.391Z,5.47
2022-10-13T15:58:45.625Z,6.75
2022-10-13T16:01:15.417Z,5.40
2022-10-13T16:03:42.589Z,5.72
2022-10-13T16:06:12.385Z,5.63
2022-10-13T16:08:41.295Z,5.97
2022-10-13T16:11:13.008Z,5.63
2022-10-13T16:13:40.773Z,5.65
2022-10-13T16:16:09.009Z,5.68
2022-10-13T16:18:38.181Z,4.60
2022-10-13T16:21:22.930Z,4.70
2022-10-13T16:23:49.928Z,4.78
2022-10-13T16:26:17.831Z,4.32
2022-10-13T16:28:45.910Z,4.43
2022-10-13T16:31:16.309Z,4.72
2022-10-13T16:33:45.126Z,5.78
2022-10-13T16:36:17.813Z,4.88
2022-10-13T16:38:46.885Z,4.28
2022-10-13T16:41:16.955Z,4.75
2022-10-13T16:43:46.139Z,4.85
2022-10-13T16:46:15.093Z,4.95
2022-10-13T16:48:43.236Z,5.00
2022-10-13T16:51:18.153Z,6.00
2022-10-13T16:53:53.699Z,4.55
2022-10-13T16:56:24.408Z,3.80
2022-10-13T16:59:00.951Z,4.25
2022-10-13T17:01:28.816Z,4.65
2022-10-13T17:03:56.476Z,4.00
2022-10-13T17:06:25.783Z,4.07
2022-10-13T17:09:00.241Z,4.43
2022-10-13T17:13:58.491Z,3.92
2022-10-13T17:16:27.895Z,4.85
2022-10-13T17:18:55.672Z,4.68
2022-10-13T17:21:28.493Z,4.28
2022-10-13T17:23:56.888Z,5.13
2022-10-13T17:26:24.970Z,4.45
2022-10-13T17:28:52.078Z,4.78
2022-10-13T17:31:22.011Z,4.32
2022-10-13T17:33:50.118Z,3.88
2022-10-13T17:36:26.263Z,3.40
2022-10-13T17:38:55.805Z,3.95
2022-10-13T17:41:24.553Z,3.35
2022-10-13T17:43:52.415Z,3.80
2022-10-13T17:46:38.688Z,3.53
2022-10-13T17:49:07.969Z,4.50
2022-10-13T17:51:35.372Z,3.20
2022-10-13T17:54:06.058Z,2.67
2022-10-13T17:56:34.010Z,3.30
2022-10-13T17:59:02.457Z,3.10
2022-10-13T18:01:35.036Z,3.28
2022-10-13T18:04:08.543Z,2.78
2022-10-13T18:06:40.597Z,2.45
2022-10-13T18:11:36.531Z,3.22
2022-10-13T18:14:03.937Z,3.28
2022-10-13T18:16:30.975Z,3.58
2022-10-13T18:18:58.331Z,3.00
2022-10-13T18:21:28.508Z,3.28
2022-10-13T18:23:57.895Z,3.92
2022-10-13T18:26:25.952Z,4.20
2022-10-13T18:28:53.462Z,3.28
2022-10-13T18:31:29.585Z,2.97
2022-10-13T18:34:02.597Z,2.53
2022-10-13T18:36:35.840Z,2.60
2022-10-13T18:39:21.164Z,2.85
2022-10-13T18:41:49.698Z,3.13
2022-10-13T18:44:17.028Z,3.25
2022-10-13T18:46:44.245Z,3.20
2022-10-13T18:49:16.045Z,3.00
2022-10-13T18:51:43.541Z,3.40
2022-10-13T18:54:11.098Z,3.17
2022-10-13T18:56:38.648Z,2.95
2022-10-13T18:59:07.070Z,2.92
2022-10-13T19:01:35.952Z,2.65
2022-10-13T19:04:03.810Z,3.13
2022-10-13T19:06:32.472Z,3.53
2022-10-13T19:09:08.119Z,3.47
2022-10-13T19:11:36.935Z,3.50
2022-10-13T19:14:10.940Z,3.58
2022-10-13T19:16:40.915Z,3.10
2022-10-13T19:19:09.220Z,3.10
2022-10-13T19:21:38.222Z,4.15
2022-10-13T19:24:06.516Z,4.30
2022-10-13T19:26:38.748Z,3.45
2022-10-13T19:29:09.195Z,5.28
2022-10-13T19:31:37.541Z,4.28
2022-10-13T19:34:08.104Z,4.45
2022-10-13T19:36:46.772Z,4.43
2022-10-13T19:39:16.571Z,5.57
2022-10-13T19:41:45.503Z,6.03
2022-10-13T19:44:13.987Z,6.13
2022-10-13T19:46:42.747Z,11.90
2022-10-13T19:49:11.172Z,10.55
2022-10-13T19:51:45.364Z,8.18
2022-10-13T19:54:13.391Z,6.63
2022-10-13T19:56:47.731Z,6.50
2022-10-13T19:59:17.816Z,6.33
2022-10-13T20:01:45.846Z,5.18
2022-10-13T20:04:14.542Z,5.75
2022-10-13T20:06:43.628Z,4.72
2022-10-13T20:09:11.085Z,4.90
2022-10-13T20:11:40.598Z,4.50
2022-10-13T20:14:08.153Z,4.85
2022-10-13T20:16:36.713Z,5.38
2022-10-13T20:19:05.047Z,4.70
2022-10-13T20:21:36.033Z,4.95
2022-10-13T20:24:03.545Z,4.23
2022-10-13T20:26:34.104Z,5.05
2022-10-13T20:29:01.492Z,5.18
2022-10-13T20:31:28.550Z,4.95
2022-10-13T20:33:57.935Z,5.90
2022-10-13T20:36:34.705Z,4.28
2022-10-13T20:39:06.918Z,4.80
2022-10-13T20:41:34.920Z,5.25
2022-10-13T20:44:02.491Z,4.40
2022-10-13T20:46:32.760Z,4.80
2022-10-13T20:49:15.057Z,4.65
2022-10-13T20:51:43.260Z,4.75
2022-10-13T20:54:12.628Z,5.50
2022-10-13T20:56:41.536Z,4.60
2022-10-13T20:59:11.804Z,5.40
2022-10-13T21:01:41.445Z,5.40
2022-10-13T21:04:10.519Z,5.82
2022-10-13T21:06:38.135Z,6.05
2022-10-13T21:09:06.850Z,7.38
2022-10-13T21:11:36.964Z,5.45
2022-10-13T21:14:07.016Z,6.38
2022-10-13T21:16:34.940Z,6.07
2022-10-13T21:19:05.963Z,6.45
2022-10-13T21:21:34.463Z,6.40
2022-10-13T21:24:06.209Z,5.40
2022-10-13T21:26:35.105Z,6.72
2022-10-13T21:29:02.822Z,5.43
2022-10-13T21:31:30.961Z,5.82
2022-10-13T21:34:00.337Z,5.75
2022-10-13T21:36:30.064Z,6.28
2022-10-13T21:39:00.760Z,7.55
2022-10-13T21:41:28.523Z,5.70
2022-10-13T21:43:55.844Z,6.00
2022-10-13T21:46:28.606Z,6.32
2022-10-13T21:48:57.857Z,5.55
2022-10-13T21:51:33.259Z,6.60
2022-10-13T21:54:04.939Z,7.55
2022-10-13T21:56:33.037Z,7.35
2022-10-13T21:59:00.721Z,8.07
2022-10-13T22:01:28.458Z,7.47
2022-10-13T22:04:00.780Z,7.90
2022-10-13T22:06:29.460Z,7.25
2022-10-13T22:08:58.960Z,7.68
2022-10-13T22:11:29.059Z,9.38
2022-10-13T22:13:57.460Z,7.55
2022-10-13T22:16:33.939Z,7.78
2022-10-13T22:19:01.224Z,8.70
2022-10-13T22:21:31.950Z,6.88
2022-10-13T22:24:05.101Z,7.57
2022-10-13T22:26:34.485Z,8.52
2022-10-13T22:29:03.624Z,7.90
2022-10-13T22:31:32.927Z,8.45
2022-10-13T22:34:05.126Z,8.25
2022-10-13T22:36:32.485Z,8.50
2022-10-13T22:39:02.771Z,8.85
2022-10-13T22:41:31.520Z,7.95
2022-10-13T22:44:00.434Z,7.28
2022-10-13T22:46:30.795Z,9.93
2022-10-13T22:48:58.286Z,9.23
2022-10-13T22:51:27.403Z,8.13
2022-10-13T22:53:54.758Z,11.13
2022-10-13T22:56:23.946Z,9.50
2022-10-13T22:58:56.836Z,10.75
2022-10-13T23:01:25.026Z,9.68
2022-10-13T23:03:54.339Z,10.23
2022-10-13T23:06:24.344Z,9.18
2022-10-13T23:08:51.600Z,11.15
2022-10-13T23:11:19.367Z,9.80
2022-10-13T23:13:47.246Z,9.48
2022-10-13T23:16:17.541Z,8.90
2022-10-13T23:18:44.540Z,9.02
2022-10-13T23:21:30.374Z,8.55
2022-10-13T23:24:02.807Z,10.20
2022-10-13T23:26:30.883Z,9.10
2022-10-13T23:28:58.495Z,10.90
2022-10-13T23:31:26.835Z,10.50
2022-10-13T23:33:54.247Z,10.88
2022-10-13T23:36:25.138Z,11.18
2022-10-13T23:39:07.526Z,10.85
2022-10-13T23:41:34.914Z,8.85
2022-10-13T23:44:02.228Z,10.70
2022-10-13T23:46:29.202Z,12.70
2022-10-13T23:48:56.786Z,9.68
2022-10-13T23:51:25.653Z,9.88
2022-10-13T23:53:53.304Z,9.43
2022-10-13T23:56:20.602Z,11.15
2022-10-13T23:58:48.231Z,10.52
